sensor_id;sensor_type;location;lat;lon;timestamp;temperature;humidity
45339;DHT22;31071;51.478;5.710;2023-04-15T00:00:12;7.90;99.90
45339;DHT22;31071;51.478;5.710;2023-04-15T00:02:38;7.80;99.90
45339;DHT22;31071;51.478;5.710;2023-04-15T00:05:04;7.60;99.90
45339;DHT22;31071;51.478;5.710;2023-04-15T00:07:30;7.60;99.90
45339;DHT22;31071;51.478;5.710;2023-04-15T00:09:56;7.60;99.90
45339;DHT22;31071;51.478;5.710;2023-04-15T00:12:26;7.50;99.90
45339;DHT22;31071;51.478;5.710;2023-04-15T00:14:52;7.40;99.90
45339;DHT22;31071;51.478;5.710;2023-04-15T00:17:19;7.40;99.90
45339;DHT22;31071;51.478;5.710;2023-04-15T00:19:44;7.30;99.90
45339;DHT22;31071;51.478;5.710;2023-04-15T00:22:10;7.30;99.90
45339;DHT22;31071;51.478;5.710;2023-04-15T00:24:36;7.20;99.90
45339;DHT22;31071;51.478;5.710;2023-04-15T00:27:02;7.10;99.90
45339;DHT22;31071;51.478;5.710;2023-04-15T00:29:28;7.20;99.90
45339;DHT22;31071;51.478;5.710;2023-04-15T00:31:54;7.20;99.90
45339;DHT22;31071;51.478;5.710;2023-04-15T00:34:19;7.20;99.90
45339;DHT22;31071;51.478;5.710;2023-04-15T00:36:45;7.20;99.90
45339;DHT22;31071;51.478;5.710;2023-04-15T00:39:11;7.10;99.90
45339;DHT22;31071;51.478;5.710;2023-04-15T00:41:36;7.00;99.90
45339;DHT22;31071;51.478;5.710;2023-04-15T00:44:05;6.90;99.90
45339;DHT22;31071;51.478;5.710;2023-04-15T00:46:33;6.90;99.90
45339;DHT22;31071;51.478;5.710;2023-04-15T00:48:59;6.90;99.90
45339;DHT22;31071;51.478;5.710;2023-04-15T00:51:25;6.80;99.90
45339;DHT22;31071;51.478;5.710;2023-04-15T00:53:50;6.80;99.90
45339;DHT22;31071;51.478;5.710;2023-04-15T00:56:16;6.70;99.90
45339;DHT22;31071;51.478;5.710;2023-04-15T00:58:42;6.70;99.90
45339;DHT22;31071;51.478;5.710;2023-04-15T01:01:08;6.70;99.90
45339;DHT22;31071;51.478;5.710;2023-04-15T01:03:33;6.70;99.90
45339;DHT22;31071;51.478;5.710;2023-04-15T01:05:59;6.70;99.90
45339;DHT22;31071;51.478;5.710;2023-04-15T01:08:28;6.60;99.90
45339;DHT22;31071;51.478;5.710;2023-04-15T01:11:00;6.60;99.90
45339;DHT22;31071;51.478;5.710;2023-04-15T01:13:26;6.60;99.90
45339;DHT22;31071;51.478;5.710;2023-04-15T01:15:52;6.50;99.90
45339;DHT22;31071;51.478;5.710;2023-04-15T01:18:18;6.50;99.90
45339;DHT22;31071;51.478;5.710;2023-04-15T01:20:45;6.50;99.90
45339;DHT22;31071;51.478;5.710;2023-04-15T01:23:11;6.50;99.90
45339;DHT22;31071;51.478;5.710;2023-04-15T01:25:37;6.40;99.90
45339;DHT22;31071;51.478;5.710;2023-04-15T01:28:03;6.40;99.90
45339;DHT22;31071;51.478;5.710;2023-04-15T01:30:33;6.40;99.90
45339;DHT22;31071;51.478;5.710;2023-04-15T01:32:58;6.40;99.90
45339;DHT22;31071;51.478;5.710;2023-04-15T01:35:24;6.40;99.90
45339;DHT22;31071;51.478;5.710;2023-04-15T01:37:50;6.40;99.90
45339;DHT22;31071;51.478;5.710;2023-04-15T01:40:15;6.40;99.90
45339;DHT22;31071;51.478;5.710;2023-04-15T01:42:41;6.40;99.90
45339;DHT22;31071;51.478;5.710;2023-04-15T01:45:07;6.40;99.90
45339;DHT22;31071;51.478;5.710;2023-04-15T01:47:33;6.50;99.90
45339;DHT22;31071;51.478;5.710;2023-04-15T01:49:58;6.40;99.90
45339;DHT22;31071;51.478;5.710;2023-04-15T01:52:24;6.40;99.90
45339;DHT22;31071;51.478;5.710;2023-04-15T01:54:50;6.40;99.90
45339;DHT22;31071;51.478;5.710;2023-04-15T01:57:15;6.30;99.90
45339;DHT22;31071;51.478;5.710;2023-04-15T01:59:41;6.20;99.90
45339;DHT22;31071;51.478;5.710;2023-04-15T02:02:07;6.20;99.90
45339;DHT22;31071;51.478;5.710;2023-04-15T02:04:32;6.10;99.90
45339;DHT22;31071;51.478;5.710;2023-04-15T02:06:58;6.10;99.90
45339;DHT22;31071;51.478;5.710;2023-04-15T02:09:24;6.00;99.90
45339;DHT22;31071;51.478;5.710;2023-04-15T02:11:50;5.90;99.90
45339;DHT22;31071;51.478;5.710;2023-04-15T02:14:17;6.00;99.90
45339;DHT22;31071;51.478;5.710;2023-04-15T02:16:42;5.90;99.90
45339;DHT22;31071;51.478;5.710;2023-04-15T02:19:08;5.90;99.90
45339;DHT22;31071;51.478;5.710;2023-04-15T02:21:33;5.90;99.90
45339;DHT22;31071;51.478;5.710;2023-04-15T02:23:59;5.90;99.90
45339;DHT22;31071;51.478;5.710;2023-04-15T02:26:26;5.90;99.90
45339;DHT22;31071;51.478;5.710;2023-04-15T02:28:52;5.90;99.90
45339;DHT22;31071;51.478;5.710;2023-04-15T02:31:18;5.90;99.90
45339;DHT22;31071;51.478;5.710;2023-04-15T02:33:43;5.90;99.90
45339;DHT22;31071;51.478;5.710;2023-04-15T02:36:09;5.90;99.90
45339;DHT22;31071;51.478;5.710;2023-04-15T02:38:36;5.90;99.90
45339;DHT22;31071;51.478;5.710;2023-04-15T02:41:02;5.90;99.90
45339;DHT22;31071;51.478;5.710;2023-04-15T02:43:29;5.80;99.90
45339;DHT22;31071;51.478;5.710;2023-04-15T02:45:54;5.80;99.90
45339;DHT22;31071;51.478;5.710;2023-04-15T02:48:20;5.80;99.90
45339;DHT22;31071;51.478;5.710;2023-04-15T02:50:46;5.90;99.90
45339;DHT22;31071;51.478;5.710;2023-04-15T02:53:12;5.90;99.90
45339;DHT22;31071;51.478;5.710;2023-04-15T02:55:39;5.90;99.90
45339;DHT22;31071;51.478;5.710;2023-04-15T02:58:04;5.90;99.90
45339;DHT22;31071;51.478;5.710;2023-04-15T03:00:30;5.90;99.90
45339;DHT22;31071;51.478;5.710;2023-04-15T03:03:01;5.90;99.90
45339;DHT22;31071;51.478;5.710;2023-04-15T03:05:27;5.90;99.90
45339;DHT22;31071;51.478;5.710;2023-04-15T03:07:53;5.80;99.90
45339;DHT22;31071;51.478;5.710;2023-04-15T03:10:19;5.70;99.90
45339;DHT22;31071;51.478;5.710;2023-04-15T03:12:45;5.70;99.90
45339;DHT22;31071;51.478;5.710;2023-04-15T03:15:11;5.70;99.90
45339;DHT22;31071;51.478;5.710;2023-04-15T03:17:36;5.60;99.90
45339;DHT22;31071;51.478;5.710;2023-04-15T03:20:03;5.60;99.90
45339;DHT22;31071;51.478;5.710;2023-04-15T03:22:30;5.60;99.90
45339;DHT22;31071;51.478;5.710;2023-04-15T03:24:56;5.60;99.90
45339;DHT22;31071;51.478;5.710;2023-04-15T03:27:21;5.50;99.90
45339;DHT22;31071;51.478;5.710;2023-04-15T03:29:47;6.40;99.90
45339;DHT22;31071;51.478;5.710;2023-04-15T03:32:13;5.40;99.90
45339;DHT22;31071;51.478;5.710;2023-04-15T03:34:40;5.40;99.90
45339;DHT22;31071;51.478;5.710;2023-04-15T03:37:05;5.40;99.90
45339;DHT22;31071;51.478;5.710;2023-04-15T03:39:31;5.10;99.90
45339;DHT22;31071;51.478;5.710;2023-04-15T03:41:57;5.40;99.90
45339;DHT22;31071;51.478;5.710;2023-04-15T03:44:23;5.30;99.90
45339;DHT22;31071;51.478;5.710;2023-04-15T03:46:49;5.20;99.90
45339;DHT22;31071;51.478;5.710;2023-04-15T03:49:15;5.20;99.90
45339;DHT22;31071;51.478;5.710;2023-04-15T03:51:40;5.20;99.90
45339;DHT22;31071;51.478;5.710;2023-04-15T03:54:06;5.20;99.90
45339;DHT22;31071;51.478;5.710;2023-04-15T03:56:31;5.10;99.90
45339;DHT22;31071;51.478;5.710;2023-04-15T03:58:57;5.20;99.90
45339;DHT22;31071;51.478;5.710;2023-04-15T04:01:22;5.10;99.90
45339;DHT22;31071;51.478;5.710;2023-04-15T04:03:47;5.00;99.90
45339;DHT22;31071;51.478;5.710;2023-04-15T04:06:14;5.00;99.90
45339;DHT22;31071;51.478;5.710;2023-04-15T04:08:39;5.10;99.90
45339;DHT22;31071;51.478;5.710;2023-04-15T04:11:05;5.00;99.90
45339;DHT22;31071;51.478;5.710;2023-04-15T04:13:31;5.00;99.90
45339;DHT22;31071;51.478;5.710;2023-04-15T04:15:56;5.00;99.90
45339;DHT22;31071;51.478;5.710;2023-04-15T04:18:22;5.00;99.90
45339;DHT22;31071;51.478;5.710;2023-04-15T04:20:47;5.00;99.90
45339;DHT22;31071;51.478;5.710;2023-04-15T04:23:13;5.00;99.90
45339;DHT22;31071;51.478;5.710;2023-04-15T04:25:39;4.90;99.90
45339;DHT22;31071;51.478;5.710;2023-04-15T04:28:04;4.90;99.90
45339;DHT22;31071;51.478;5.710;2023-04-15T04:30:30;4.80;99.90
45339;DHT22;31071;51.478;5.710;2023-04-15T04:32:55;4.90;99.90
45339;DHT22;31071;51.478;5.710;2023-04-15T04:35:21;4.80;99.90
45339;DHT22;31071;51.478;5.710;2023-04-15T04:37:47;4.80;99.90
45339;DHT22;31071;51.478;5.710;2023-04-15T04:40:12;4.80;99.90
45339;DHT22;31071;51.478;5.710;2023-04-15T04:42:38;6.10;99.90
45339;DHT22;31071;51.478;5.710;2023-04-15T04:45:04;4.80;99.90
45339;DHT22;31071;51.478;5.710;2023-04-15T04:47:29;4.70;99.90
45339;DHT22;31071;51.478;5.710;2023-04-15T04:49:55;4.70;99.90
45339;DHT22;31071;51.478;5.710;2023-04-15T04:52:21;4.70;99.90
45339;DHT22;31071;51.478;5.710;2023-04-15T04:54:46;4.70;99.90
45339;DHT22;31071;51.478;5.710;2023-04-15T04:57:12;4.80;99.90
45339;DHT22;31071;51.478;5.710;2023-04-15T04:59:38;4.80;99.90
45339;DHT22;31071;51.478;5.710;2023-04-15T05:02:03;4.80;99.90
45339;DHT22;31071;51.478;5.710;2023-04-15T05:04:29;4.80;99.90
45339;DHT22;31071;51.478;5.710;2023-04-15T05:06:56;4.80;99.90
45339;DHT22;31071;51.478;5.710;2023-04-15T05:09:22;4.80;99.90
45339;DHT22;31071;51.478;5.710;2023-04-15T05:11:48;4.90;99.90
45339;DHT22;31071;51.478;5.710;2023-04-15T05:14:13;4.90;99.90
45339;DHT22;31071;51.478;5.710;2023-04-15T05:16:39;4.90;99.90
45339;DHT22;31071;51.478;5.710;2023-04-15T05:19:04;5.00;99.90
45339;DHT22;31071;51.478;5.710;2023-04-15T05:21:30;5.10;99.90
45339;DHT22;31071;51.478;5.710;2023-04-15T05:23:56;5.10;99.90
45339;DHT22;31071;51.478;5.710;2023-04-15T05:26:21;5.10;99.90
45339;DHT22;31071;51.478;5.710;2023-04-15T05:28:48;5.20;99.90
45339;DHT22;31071;51.478;5.710;2023-04-15T05:31:14;5.30;99.90
45339;DHT22;31071;51.478;5.710;2023-04-15T05:33:40;5.40;99.90
45339;DHT22;31071;51.478;5.710;2023-04-15T05:36:06;5.50;99.90
45339;DHT22;31071;51.478;5.710;2023-04-15T05:38:31;5.60;99.90
45339;DHT22;31071;51.478;5.710;2023-04-15T05:40:57;5.90;99.90
45339;DHT22;31071;51.478;5.710;2023-04-15T05:43:23;5.70;99.90
45339;DHT22;31071;51.478;5.710;2023-04-15T05:45:48;5.80;99.90
45339;DHT22;31071;51.478;5.710;2023-04-15T05:48:14;5.70;99.90
45339;DHT22;31071;51.478;5.710;2023-04-15T05:50:40;5.80;99.90
45339;DHT22;31071;51.478;5.710;2023-04-15T05:53:07;5.80;99.90
45339;DHT22;31071;51.478;5.710;2023-04-15T05:55:33;5.90;99.90
45339;DHT22;31071;51.478;5.710;2023-04-15T05:57:58;6.00;99.90
45339;DHT22;31071;51.478;5.710;2023-04-15T06:00:24;6.10;99.90
45339;DHT22;31071;51.478;5.710;2023-04-15T06:02:50;6.20;99.90
45339;DHT22;31071;51.478;5.710;2023-04-15T06:05:15;6.20;99.90
45339;DHT22;31071;51.478;5.710;2023-04-15T06:07:41;6.40;99.90
45339;DHT22;31071;51.478;5.710;2023-04-15T06:10:08;6.50;99.90
45339;DHT22;31071;51.478;5.710;2023-04-15T06:12:34;6.50;99.90
45339;DHT22;31071;51.478;5.710;2023-04-15T06:15:00;6.70;99.90
45339;DHT22;31071;51.478;5.710;2023-04-15T06:17:26;6.80;99.90
45339;DHT22;31071;51.478;5.710;2023-04-15T06:19:52;6.80;99.90
45339;DHT22;31071;51.478;5.710;2023-04-15T06:22:21;6.80;99.90
45339;DHT22;31071;51.478;5.710;2023-04-15T06:24:48;6.90;99.90
45339;DHT22;31071;51.478;5.710;2023-04-15T06:27:15;7.00;99.90
45339;DHT22;31071;51.478;5.710;2023-04-15T06:29:40;7.00;99.90
45339;DHT22;31071;51.478;5.710;2023-04-15T06:32:06;7.10;99.90
45339;DHT22;31071;51.478;5.710;2023-04-15T06:34:32;7.20;99.90
45339;DHT22;31071;51.478;5.710;2023-04-15T06:36:57;7.10;99.90
45339;DHT22;31071;51.478;5.710;2023-04-15T06:39:23;7.20;99.90
45339;DHT22;31071;51.478;5.710;2023-04-15T06:41:48;7.30;99.90
45339;DHT22;31071;51.478;5.710;2023-04-15T06:44:14;9.10;99.90
45339;DHT22;31071;51.478;5.710;2023-04-15T06:46:40;9.30;99.90
45339;DHT22;31071;51.478;5.710;2023-04-15T06:49:05;9.10;99.90
45339;DHT22;31071;51.478;5.710;2023-04-15T06:51:31;7.50;99.90
45339;DHT22;31071;51.478;5.710;2023-04-15T06:53:57;9.50;99.90
45339;DHT22;31071;51.478;5.710;2023-04-15T06:56:22;8.00;99.90
45339;DHT22;31071;51.478;5.710;2023-04-15T06:58:48;8.10;99.90
45339;DHT22;31071;51.478;5.710;2023-04-15T07:01:16;8.30;99.90
45339;DHT22;31071;51.478;5.710;2023-04-15T07:03:42;8.20;99.90
45339;DHT22;31071;51.478;5.710;2023-04-15T07:06:08;8.90;99.90
45339;DHT22;31071;51.478;5.710;2023-04-15T07:08:34;10.60;99.90
45339;DHT22;31071;51.478;5.710;2023-04-15T07:11:00;12.60;99.90
45339;DHT22;31071;51.478;5.710;2023-04-15T07:13:26;9.80;99.90
45339;DHT22;31071;51.478;5.710;2023-04-15T07:15:52;12.20;99.90
45339;DHT22;31071;51.478;5.710;2023-04-15T07:18:17;11.10;99.90
45339;DHT22;31071;51.478;5.710;2023-04-15T07:20:43;11.10;99.90
45339;DHT22;31071;51.478;5.710;2023-04-15T07:23:08;11.00;99.90
45339;DHT22;31071;51.478;5.710;2023-04-15T07:25:34;11.10;99.90
45339;DHT22;31071;51.478;5.710;2023-04-15T07:27:59;10.90;99.90
45339;DHT22;31071;51.478;5.710;2023-04-15T07:30:26;12.20;99.90
45339;DHT22;31071;51.478;5.710;2023-04-15T07:32:51;10.50;99.90
45339;DHT22;31071;51.478;5.710;2023-04-15T07:35:17;10.50;99.90
45339;DHT22;31071;51.478;5.710;2023-04-15T07:37:45;11.30;99.90
45339;DHT22;31071;51.478;5.710;2023-04-15T07:40:11;10.70;99.90
45339;DHT22;31071;51.478;5.710;2023-04-15T07:42:39;10.90;99.90
45339;DHT22;31071;51.478;5.710;2023-04-15T07:45:04;11.20;99.90
45339;DHT22;31071;51.478;5.710;2023-04-15T07:47:31;11.40;99.90
45339;DHT22;31071;51.478;5.710;2023-04-15T07:49:56;11.70;99.90
45339;DHT22;31071;51.478;5.710;2023-04-15T07:52:22;12.30;99.90
45339;DHT22;31071;51.478;5.710;2023-04-15T07:54:47;12.70;99.90
45339;DHT22;31071;51.478;5.710;2023-04-15T07:57:13;12.80;99.90
45339;DHT22;31071;51.478;5.710;2023-04-15T07:59:38;12.60;99.90
45339;DHT22;31071;51.478;5.710;2023-04-15T08:02:04;12.60;99.90
45339;DHT22;31071;51.478;5.710;2023-04-15T08:04:29;12.90;99.80
45339;DHT22;31071;51.478;5.710;2023-04-15T08:06:55;12.90;98.90
45339;DHT22;31071;51.478;5.710;2023-04-15T08:09:21;13.40;99.00
45339;DHT22;31071;51.478;5.710;2023-04-15T08:11:48;13.90;97.60
45339;DHT22;31071;51.478;5.710;2023-04-15T08:14:15;14.20;96.60
45339;DHT22;31071;51.478;5.710;2023-04-15T08:16:41;14.50;95.00
45339;DHT22;31071;51.478;5.710;2023-04-15T08:19:06;14.70;93.90
45339;DHT22;31071;51.478;5.710;2023-04-15T08:21:32;15.30;93.70
45339;DHT22;31071;51.478;5.710;2023-04-15T08:23:58;15.20;91.70
45339;DHT22;31071;51.478;5.710;2023-04-15T08:26:24;15.00;91.90
45339;DHT22;31071;51.478;5.710;2023-04-15T08:28:50;16.50;93.60
45339;DHT22;31071;51.478;5.710;2023-04-15T08:31:17;15.40;93.70
45339;DHT22;31071;51.478;5.710;2023-04-15T08:33:43;14.30;93.30
45339;DHT22;31071;51.478;5.710;2023-04-15T08:36:08;15.50;92.60
45339;DHT22;31071;51.478;5.710;2023-04-15T08:38:34;13.90;91.00
45339;DHT22;31071;51.478;5.710;2023-04-15T08:41:08;14.10;92.80
45339;DHT22;31071;51.478;5.710;2023-04-15T08:43:44;13.80;93.40
45339;DHT22;31071;51.478;5.710;2023-04-15T08:46:11;14.20;93.60
45339;DHT22;31071;51.478;5.710;2023-04-15T08:48:37;14.30;92.70
45339;DHT22;31071;51.478;5.710;2023-04-15T08:51:05;14.60;92.10
45339;DHT22;31071;51.478;5.710;2023-04-15T08:53:31;15.10;90.40
45339;DHT22;31071;51.478;5.710;2023-04-15T08:55:57;15.70;90.50
45339;DHT22;31071;51.478;5.710;2023-04-15T08:58:24;15.60;85.80
45339;DHT22;31071;51.478;5.710;2023-04-15T09:00:50;15.80;85.70
45339;DHT22;31071;51.478;5.710;2023-04-15T09:03:19;15.90;85.20
45339;DHT22;31071;51.478;5.710;2023-04-15T09:05:46;16.30;85.10
45339;DHT22;31071;51.478;5.710;2023-04-15T09:08:12;16.30;84.20
45339;DHT22;31071;51.478;5.710;2023-04-15T09:10:38;16.20;82.60
45339;DHT22;31071;51.478;5.710;2023-04-15T09:13:03;16.20;83.90
45339;DHT22;31071;51.478;5.710;2023-04-15T09:15:29;17.40;83.60
45339;DHT22;31071;51.478;5.710;2023-04-15T09:17:57;15.70;84.70
45339;DHT22;31071;51.478;5.710;2023-04-15T09:20:23;15.90;83.80
45339;DHT22;31071;51.478;5.710;2023-04-15T09:22:49;17.40;86.00
45339;DHT22;31071;51.478;5.710;2023-04-15T09:27:52;16.60;82.10
45339;DHT22;31071;51.478;5.710;2023-04-15T09:30:18;18.80;79.80
45339;DHT22;31071;51.478;5.710;2023-04-15T09:32:58;17.70;80.50
45339;DHT22;31071;51.478;5.710;2023-04-15T09:36:02;17.50;77.10
45339;DHT22;31071;51.478;5.710;2023-04-15T09:38:31;18.80;72.30
45339;DHT22;31071;51.478;5.710;2023-04-15T09:44:30;18.10;69.00
45339;DHT22;31071;51.478;5.710;2023-04-15T09:46:58;17.40;71.90
45339;DHT22;31071;51.478;5.710;2023-04-15T09:49:54;16.80;72.40
45339;DHT22;31071;51.478;5.710;2023-04-15T09:52:20;16.70;74.70
45339;DHT22;31071;51.478;5.710;2023-04-15T09:54:46;17.00;74.60
45339;DHT22;31071;51.478;5.710;2023-04-15T09:57:21;17.00;74.70
45339;DHT22;31071;51.478;5.710;2023-04-15T09:59:48;17.10;73.30
45339;DHT22;31071;51.478;5.710;2023-04-15T10:02:21;17.40;72.40
45339;DHT22;31071;51.478;5.710;2023-04-15T10:04:47;16.80;73.60
45339;DHT22;31071;51.478;5.710;2023-04-15T10:07:14;19.10;72.30
45339;DHT22;31071;51.478;5.710;2023-04-15T10:09:40;17.30;74.40
45339;DHT22;31071;51.478;5.710;2023-04-15T10:12:11;18.20;72.40
45339;DHT22;31071;51.478;5.710;2023-04-15T10:14:37;18.40;72.60
45339;DHT22;31071;51.478;5.710;2023-04-15T10:17:13;18.40;69.50
45339;DHT22;31071;51.478;5.710;2023-04-15T10:19:42;19.90;72.60
45339;DHT22;31071;51.478;5.710;2023-04-15T10:22:08;17.40;71.90
45339;DHT22;31071;51.478;5.710;2023-04-15T10:24:34;17.40;69.50
45339;DHT22;31071;51.478;5.710;2023-04-15T10:27:00;17.70;71.90
45339;DHT22;31071;51.478;5.710;2023-04-15T10:29:28;18.10;68.00
45339;DHT22;31071;51.478;5.710;2023-04-15T10:31:58;17.00;69.80
45339;DHT22;31071;51.478;5.710;2023-04-15T10:34:24;18.40;70.50
45339;DHT22;31071;51.478;5.710;2023-04-15T10:36:50;18.70;72.90
45339;DHT22;31071;51.478;5.710;2023-04-15T10:42:09;18.40;70.00
45339;DHT22;31071;51.478;5.710;2023-04-15T10:44:36;19.80;70.60
45339;DHT22;31071;51.478;5.710;2023-04-15T10:47:07;17.30;68.20
45339;DHT22;31071;51.478;5.710;2023-04-15T10:49:54;19.90;72.50
45339;DHT22;31071;51.478;5.710;2023-04-15T10:52:26;18.80;69.70
45339;DHT22;31071;51.478;5.710;2023-04-15T10:55:11;17.90;64.20
45339;DHT22;31071;51.478;5.710;2023-04-15T10:57:39;17.60;67.30
45339;DHT22;31071;51.478;5.710;2023-04-15T11:00:13;18.60;64.30
45339;DHT22;31071;51.478;5.710;2023-04-15T11:02:40;18.60;66.00
45339;DHT22;31071;51.478;5.710;2023-04-15T11:05:07;18.40;65.20
45339;DHT22;31071;51.478;5.710;2023-04-15T11:07:55;19.80;69.10
45339;DHT22;31071;51.478;5.710;2023-04-15T11:13:16;19.80;69.90
45339;DHT22;31071;51.478;5.710;2023-04-15T11:15:44;18.90;66.90
45339;DHT22;31071;51.478;5.710;2023-04-15T11:18:26;18.90;67.10
45339;DHT22;31071;51.478;5.710;2023-04-15T11:20:54;18.10;68.80
45339;DHT22;31071;51.478;5.710;2023-04-15T11:23:31;19.60;66.90
45339;DHT22;31071;51.478;5.710;2023-04-15T11:25:59;18.50;65.30
45339;DHT22;31071;51.478;5.710;2023-04-15T11:28:29;18.10;67.10
45339;DHT22;31071;51.478;5.710;2023-04-15T11:30:55;17.50;70.30
45339;DHT22;31071;51.478;5.710;2023-04-15T11:33:22;17.60;69.60
45339;DHT22;31071;51.478;5.710;2023-04-15T11:35:48;17.40;67.90
45339;DHT22;31071;51.478;5.710;2023-04-15T11:38:14;19.40;71.40
45339;DHT22;31071;51.478;5.710;2023-04-15T11:40:42;17.50;68.90
45339;DHT22;31071;51.478;5.710;2023-04-15T11:43:10;18.30;68.60
45339;DHT22;31071;51.478;5.710;2023-04-15T11:45:37;18.90;68.30
45339;DHT22;31071;51.478;5.710;2023-04-15T11:48:10;18.60;67.70
45339;DHT22;31071;51.478;5.710;2023-04-15T11:50:37;19.00;69.80
45339;DHT22;31071;51.478;5.710;2023-04-15T11:53:06;17.20;70.60
45339;DHT22;31071;51.478;5.710;2023-04-15T11:55:47;19.80;69.80
45339;DHT22;31071;51.478;5.710;2023-04-15T11:58:19;17.70;69.80
45339;DHT22;31071;51.478;5.710;2023-04-15T12:00:50;18.70;65.50
45339;DHT22;31071;51.478;5.710;2023-04-15T12:03:27;18.30;66.40
45339;DHT22;31071;51.478;5.710;2023-04-15T12:06:17;18.50;65.80
45339;DHT22;31071;51.478;5.710;2023-04-15T12:11:43;18.40;65.30
45339;DHT22;31071;51.478;5.710;2023-04-15T12:14:27;18.70;64.30
45339;DHT22;31071;51.478;5.710;2023-04-15T12:16:56;21.10;64.50
45339;DHT22;31071;51.478;5.710;2023-04-15T12:19:39;20.20;63.60
45339;DHT22;31071;51.478;5.710;2023-04-15T12:22:14;18.80;63.30
45339;DHT22;31071;51.478;5.710;2023-04-15T12:24:41;20.70;62.70
45339;DHT22;31071;51.478;5.710;2023-04-15T12:27:13;20.40;62.10
45339;DHT22;31071;51.478;5.710;2023-04-15T12:29:40;20.20;61.50
45339;DHT22;31071;51.478;5.710;2023-04-15T12:32:09;19.80;62.70
45339;DHT22;31071;51.478;5.710;2023-04-15T12:34:40;19.20;62.90
45339;DHT22;31071;51.478;5.710;2023-04-15T12:37:08;20.00;60.20
45339;DHT22;31071;51.478;5.710;2023-04-15T12:39:36;19.00;61.60
45339;DHT22;31071;51.478;5.710;2023-04-15T12:42:03;21.10;63.30
45339;DHT22;31071;51.478;5.710;2023-04-15T12:44:30;18.50;61.30
45339;DHT22;31071;51.478;5.710;2023-04-15T12:46:56;20.30;66.60
45339;DHT22;31071;51.478;5.710;2023-04-15T12:49:22;16.80;66.70
45339;DHT22;31071;51.478;5.710;2023-04-15T12:51:53;19.10;68.60
45339;DHT22;31071;51.478;5.710;2023-04-15T12:54:19;17.20;67.60
45339;DHT22;31071;51.478;5.710;2023-04-15T12:59:35;18.20;65.00
45339;DHT22;31071;51.478;5.710;2023-04-15T13:02:00;20.10;64.30
45339;DHT22;31071;51.478;5.710;2023-04-15T13:04:27;20.70;64.80
45339;DHT22;31071;51.478;5.710;2023-04-15T13:06:54;18.60;65.90
45339;DHT22;31071;51.478;5.710;2023-04-15T13:09:20;21.20;63.10
45339;DHT22;31071;51.478;5.710;2023-04-15T13:11:46;20.50;62.60
45339;DHT22;31071;51.478;5.710;2023-04-15T13:14:11;18.70;64.10
45339;DHT22;31071;51.478;5.710;2023-04-15T13:16:37;20.30;65.50
45339;DHT22;31071;51.478;5.710;2023-04-15T13:19:03;20.80;66.70
45339;DHT22;31071;51.478;5.710;2023-04-15T13:21:29;19.40;62.00
45339;DHT22;31071;51.478;5.710;2023-04-15T13:23:56;18.00;63.10
45339;DHT22;31071;51.478;5.710;2023-04-15T13:26:22;19.20;63.30
45339;DHT22;31071;51.478;5.710;2023-04-15T13:28:47;20.10;66.10
45339;DHT22;31071;51.478;5.710;2023-04-15T13:31:13;20.60;65.60
45339;DHT22;31071;51.478;5.710;2023-04-15T13:33:38;20.60;64.40
45339;DHT22;31071;51.478;5.710;2023-04-15T13:36:04;20.30;64.90
45339;DHT22;31071;51.478;5.710;2023-04-15T13:38:30;18.90;63.70
45339;DHT22;31071;51.478;5.710;2023-04-15T13:40:55;21.00;59.90
45339;DHT22;31071;51.478;5.710;2023-04-15T13:43:21;20.60;61.90
45339;DHT22;31071;51.478;5.710;2023-04-15T13:45:47;17.70;62.60
45339;DHT22;31071;51.478;5.710;2023-04-15T13:48:12;16.30;64.40
45339;DHT22;31071;51.478;5.710;2023-04-15T13:50:38;21.30;62.30
45339;DHT22;31071;51.478;5.710;2023-04-15T13:53:05;20.50;64.70
45339;DHT22;31071;51.478;5.710;2023-04-15T13:55:31;18.90;66.60
45339;DHT22;31071;51.478;5.710;2023-04-15T13:57:59;20.30;65.40
45339;DHT22;31071;51.478;5.710;2023-04-15T14:00:25;21.00;60.70
45339;DHT22;31071;51.478;5.710;2023-04-15T14:02:50;18.70;61.30
45339;DHT22;31071;51.478;5.710;2023-04-15T14:05:16;19.70;63.60
45339;DHT22;31071;51.478;5.710;2023-04-15T14:07:41;18.40;64.00
45339;DHT22;31071;51.478;5.710;2023-04-15T14:10:07;20.60;63.20
45339;DHT22;31071;51.478;5.710;2023-04-15T14:12:33;19.10;63.90
45339;DHT22;31071;51.478;5.710;2023-04-15T14:14:58;18.20;65.10
45339;DHT22;31071;51.478;5.710;2023-04-15T14:17:26;17.60;66.30
45339;DHT22;31071;51.478;5.710;2023-04-15T14:19:52;18.70;66.60
45339;DHT22;31071;51.478;5.710;2023-04-15T14:22:17;17.20;66.50
45339;DHT22;31071;51.478;5.710;2023-04-15T14:24:43;20.20;68.60
45339;DHT22;31071;51.478;5.710;2023-04-15T14:30:19;17.10;65.90
45339;DHT22;31071;51.478;5.710;2023-04-15T14:32:45;18.80;69.10
45339;DHT22;31071;51.478;5.710;2023-04-15T14:35:10;17.80;68.10
45339;DHT22;31071;51.478;5.710;2023-04-15T14:37:36;16.80;69.10
45339;DHT22;31071;51.478;5.710;2023-04-15T14:40:02;15.30;68.70
45339;DHT22;31071;51.478;5.710;2023-04-15T14:42:27;16.10;69.30
45339;DHT22;31071;51.478;5.710;2023-04-15T14:44:53;16.40;68.00
45339;DHT22;31071;51.478;5.710;2023-04-15T14:47:18;16.60;68.60
45339;DHT22;31071;51.478;5.710;2023-04-15T14:49:44;16.50;68.40
45339;DHT22;31071;51.478;5.710;2023-04-15T14:52:10;18.50;70.50
45339;DHT22;31071;51.478;5.710;2023-04-15T14:54:35;17.90;69.80
45339;DHT22;31071;51.478;5.710;2023-04-15T14:57:01;15.80;69.30
45339;DHT22;31071;51.478;5.710;2023-04-15T14:59:28;17.60;72.00
45339;DHT22;31071;51.478;5.710;2023-04-15T15:01:53;18.10;71.90
45339;DHT22;31071;51.478;5.710;2023-04-15T15:04:19;15.90;69.60
45339;DHT22;31071;51.478;5.710;2023-04-15T15:06:44;16.10;71.40
45339;DHT22;31071;51.478;5.710;2023-04-15T15:09:10;16.00;73.40
45339;DHT22;31071;51.478;5.710;2023-04-15T15:11:36;14.60;71.70
45339;DHT22;31071;51.478;5.710;2023-04-15T15:14:01;15.10;71.90
45339;DHT22;31071;51.478;5.710;2023-04-15T15:16:27;15.50;70.40
45339;DHT22;31071;51.478;5.710;2023-04-15T15:18:53;17.10;70.90
45339;DHT22;31071;51.478;5.710;2023-04-15T15:21:19;16.20;70.10
45339;DHT22;31071;51.478;5.710;2023-04-15T15:29:47;13.60;72.10
45339;DHT22;31071;51.478;5.710;2023-04-15T15:59:08;14.60;77.70
45339;DHT22;31071;51.478;5.710;2023-04-15T16:05:16;13.90;81.00
45339;DHT22;31071;51.478;5.710;2023-04-15T16:07:53;12.40;81.90
45339;DHT22;31071;51.478;5.710;2023-04-15T16:10:24;15.20;85.20
45339;DHT22;31071;51.478;5.710;2023-04-15T16:12:59;16.00;86.80
45339;DHT22;31071;51.478;5.710;2023-04-15T16:15:36;14.50;84.90
45339;DHT22;31071;51.478;5.710;2023-04-15T16:18:01;13.50;85.70
45339;DHT22;31071;51.478;5.710;2023-04-15T16:20:29;13.60;87.20
45339;DHT22;31071;51.478;5.710;2023-04-15T16:22:59;15.20;87.90
45339;DHT22;31071;51.478;5.710;2023-04-15T16:25:38;13.00;86.50
45339;DHT22;31071;51.478;5.710;2023-04-15T16:28:03;11.60;88.90
45339;DHT22;31071;51.478;5.710;2023-04-15T16:30:44;12.70;90.80
45339;DHT22;31071;51.478;5.710;2023-04-15T16:33:19;12.40;90.70